Time;durP1;ratioP1;P1;durP2;ratioP2;P2;SDS_P1;SDS_P2;PMS_P1;PMS_P2;Temp;Humidity;BMP_temperature;BMP_pressure;BME280_temperature;BME280_humidity;BME280_pressure;Samples;Min_cycle;Max_cycle;Signal;HPM_P1;HPM_P2
2022/04/21 00:00:41;;;;;;;14.07;7.60;;;8.90;99.90;;;;;;5065259;28;20049;-73
2022/04/21 00:03:08;;;;;;;13.05;7.22;;;8.90;99.90;;;;;;5054666;28;20072;-75
2022/04/21 00:05:34;;;;;;;9.52;6.22;;;8.90;99.90;;;;;;5045098;28;20072;-75
2022/04/21 00:08:00;;;;;;;11.10;6.95;;;8.90;99.90;;;;;;5064506;28;20079;-74
2022/04/21 00:10:27;;;;;;;13.45;7.32;;;8.90;99.90;;;;;;5054390;28;20052;-75
2022/04/21 00:12:54;;;;;;;12.05;7.75;;;8.90;99.90;;;;;;5048289;28;20040;-75
2022/04/21 00:15:21;;;;;;;13.63;7.47;;;8.90;99.90;;;;;;5040171;28;20049;-75
2022/04/21 00:17:46;;;;;;;10.77;7.10;;;8.90;99.90;;;;;;5058502;28;20476;-75
2022/04/21 00:20:12;;;;;;;13.93;7.47;;;8.80;99.90;;;;;;5046564;28;20045;-75
2022/04/21 00:25:23;;;;;;;15.05;8.07;;;8.80;99.90;;;;;;5048101;28;20053;-75
2022/04/21 00:27:49;;;;;;;11.55;7.13;;;8.80;99.90;;;;;;5041757;28;20098;-75
2022/04/21 00:30:17;;;;;;;14.07;8.00;;;8.80;99.90;;;;;;5065462;28;20068;-75
2022/04/21 00:32:43;;;;;;;13.05;7.90;;;8.70;99.90;;;;;;5058279;28;20041;-75
2022/04/21 00:35:11;;;;;;;12.52;7.47;;;8.80;99.90;;;;;;5059299;28;20048;-75
2022/04/21 00:37:54;;;;;;;11.45;7.50;;;8.70;99.90;;;;;;5063359;28;20389;-76
2022/04/21 00:40:21;;;;;;;14.90;7.93;;;8.70;99.90;;;;;;5046400;28;20037;-75
2022/04/21 00:42:47;;;;;;;13.48;7.90;;;8.70;99.90;;;;;;5030866;28;20507;-75
2022/04/21 00:45:14;;;;;;;13.57;7.70;;;8.60;99.90;;;;;;5048677;28;20147;-74
2022/04/21 00:47:42;;;;;;;17.23;8.95;;;8.60;99.90;;;;;;5063493;28;20045;-76
2022/04/21 00:50:22;;;;;;;16.33;7.88;;;8.60;99.90;;;;;;5079743;28;20463;-76
2022/04/21 00:52:49;;;;;;;13.50;8.48;;;8.60;99.90;;;;;;5042302;28;20123;-76
2022/04/21 00:55:15;;;;;;;13.70;8.20;;;8.50;99.90;;;;;;5055427;28;20047;-76
2022/04/21 00:57:42;;;;;;;13.60;8.27;;;8.50;99.90;;;;;;5049468;28;20119;-76
2022/04/21 01:00:09;;;;;;;14.50;8.43;;;8.50;99.90;;;;;;5040501;28;20542;-76
2022/04/21 01:02:46;;;;;;;15.52;8.45;;;8.40;99.90;;;;;;5059071;28;20052;-76
2022/04/21 01:05:17;;;;;;;14.80;8.65;;;8.30;99.90;;;;;;5056535;28;20495;-75
2022/04/21 01:07:43;;;;;;;9.00;6.70;;;8.20;99.90;;;;;;5053853;28;20124;-76
2022/04/21 01:10:10;;;;;;;14.10;7.30;;;8.10;99.90;;;;;;5080150;28;20119;-76
2022/04/21 01:12:37;;;;;;;13.00;7.55;;;8.00;99.90;;;;;;5053914;28;20040;-75
2022/04/21 01:15:03;;;;;;;17.15;7.80;;;7.90;99.90;;;;;;5053526;28;20103;-76
2022/04/21 01:17:33;;;;;;;14.15;7.53;;;7.80;99.90;;;;;;5047127;28;20059;-76
2022/04/21 01:19:59;;;;;;;14.07;8.32;;;7.80;99.90;;;;;;5052567;28;20135;-76
2022/04/21 01:22:24;;;;;;;17.13;8.80;;;7.70;99.90;;;;;;5052210;28;20116;-76
2022/04/21 01:24:50;;;;;;;18.13;9.13;;;7.60;99.90;;;;;;5049512;28;20052;-75
2022/04/21 01:27:17;;;;;;;16.23;8.70;;;7.60;99.90;;;;;;5054698;28;20059;-75
2022/04/21 01:29:43;;;;;;;14.43;9.07;;;7.50;99.90;;;;;;5053088;28;20098;-76
2022/04/21 01:32:09;;;;;;;16.23;9.77;;;7.50;99.90;;;;;;5039655;28;20101;-76
2022/04/21 01:34:35;;;;;;;14.82;9.57;;;7.50;99.90;;;;;;5052185;28;20102;-75
2022/04/21 01:42:29;;;;;;;17.20;10.98;;;7.60;99.90;;;;;;5040956;28;20055;-76
2022/04/21 01:44:55;;;;;;;15.95;10.23;;;7.60;99.90;;;;;;5051662;28;20045;-76
2022/04/21 01:47:20;;;;;;;16.50;10.55;;;7.90;99.90;;;;;;5038441;28;20057;-75
2022/04/21 01:49:46;;;;;;;15.45;9.98;;;7.70;99.90;;;;;;5058960;28;20062;-75
2022/04/21 01:52:11;;;;;;;17.25;9.73;;;7.70;99.90;;;;;;5067032;28;20045;-76
2022/04/21 01:54:37;;;;;;;18.08;10.23;;;7.70;99.90;;;;;;5037514;28;20060;-77
2022/04/21 01:57:03;;;;;;;29.40;11.40;;;7.70;99.90;;;;;;5038955;28;20106;-77
2022/04/21 01:59:29;;;;;;;17.50;10.40;;;7.70;99.90;;;;;;5034073;28;20063;-76
2022/04/21 02:01:54;;;;;;;14.60;9.77;;;7.70;99.90;;;;;;5030726;28;20392;-77
2022/04/21 02:04:20;;;;;;;15.95;10.27;;;7.80;99.90;;;;;;5060730;28;20048;-76
2022/04/21 02:06:45;;;;;;;18.85;11.10;;;7.80;99.90;;;;;;5065771;28;20044;-76
2022/04/21 02:09:11;;;;;;;17.17;10.70;;;7.80;99.90;;;;;;5051828;28;20075;-77
2022/04/21 02:11:36;;;;;;;20.48;11.35;;;7.80;99.90;;;;;;5055813;28;20098;-75
2022/04/21 02:14:03;;;;;;;19.65;10.50;;;7.80;99.90;;;;;;5031783;28;20144;-75
2022/04/21 02:16:28;;;;;;;19.80;10.27;;;7.70;99.90;;;;;;5035322;28;20049;-75
2022/04/21 02:18:54;;;;;;;15.98;9.57;;;7.70;99.90;;;;;;5065058;28;20507;-75
2022/04/21 02:21:19;;;;;;;22.40;10.70;;;7.70;99.90;;;;;;5060322;28;20045;-75
2022/04/21 02:23:45;;;;;;;17.65;10.50;;;7.70;99.90;;;;;;5057643;28;20467;-75
2022/04/21 02:26:11;;;;;;;16.02;9.98;;;7.70;99.90;;;;;;5061349;28;20091;-75
2022/04/21 02:28:38;;;;;;;14.68;11.07;;;7.70;99.90;;;;;;5038634;28;20559;-75
2022/04/21 02:31:04;;;;;;;18.92;11.07;;;7.70;99.90;;;;;;5050346;28;20366;-75
2022/04/21 02:33:31;;;;;;;16.23;10.13;;;7.70;99.90;;;;;;5030897;28;20120;-75
2022/04/21 02:35:56;;;;;;;18.17;9.98;;;7.70;99.90;;;;;;5064646;28;20048;-75
2022/04/21 02:38:22;;;;;;;14.25;9.48;;;7.70;99.90;;;;;;5066420;28;20553;-75
2022/04/21 02:40:47;;;;;;;13.50;9.30;;;7.70;99.90;;;;;;5061878;28;20044;-74
2022/04/21 02:43:13;;;;;;;17.42;9.63;;;7.70;99.90;;;;;;5036897;28;20055;-76
2022/04/21 02:45:40;;;;;;;15.23;10.20;;;7.60;99.90;;;;;;5067064;28;20037;-76
2022/04/21 02:48:06;;;;;;;17.38;9.85;;;7.60;99.90;;;;;;5064881;28;20392;-75
2022/04/21 02:50:31;;;;;;;21.30;10.32;;;7.60;99.90;;;;;;5050456;28;20066;-75
2022/04/21 02:52:58;;;;;;;15.40;9.43;;;7.60;99.90;;;;;;5052200;28;20080;-75
2022/04/21 02:58:08;;;;;;;15.82;9.65;;;7.60;99.90;;;;;;5046047;28;20045;-75
2022/04/21 03:00:34;;;;;;;15.57;9.45;;;7.60;99.90;;;;;;5041020;28;20399;-75
2022/04/21 03:03:00;;;;;;;15.63;8.48;;;7.60;99.90;;;;;;5064117;28;20052;-75
2022/04/21 03:05:26;;;;;;;16.67;9.88;;;7.60;99.90;;;;;;5031908;28;20164;-75
2022/04/21 03:07:51;;;;;;;16.73;9.93;;;7.50;99.90;;;;;;5065317;28;20109;-75
2022/04/21 03:10:17;;;;;;;15.70;9.35;;;7.50;99.90;;;;;;5047844;28;20379;-75
2022/04/21 03:12:43;;;;;;;15.75;9.52;;;7.50;99.90;;;;;;5040952;28;20037;-75
2022/04/21 03:15:11;;;;;;;16.55;9.90;;;7.40;99.90;;;;;;5045139;28;20043;-75
2022/04/21 03:17:36;;;;;;;23.42;9.80;;;7.30;99.90;;;;;;5064069;28;20475;-75
2022/04/21 03:20:03;;;;;;;18.42;9.60;;;7.30;99.90;;;;;;5072284;28;20127;-75
2022/04/21 03:25:15;;;;;;;15.68;9.27;;;7.10;99.90;;;;;;5047642;28;20060;-75
2022/04/21 03:27:43;;;;;;;15.20;9.93;;;7.10;99.90;;;;;;5070647;28;20040;-75
2022/04/21 03:30:09;;;;;;;15.43;10.02;;;7.10;99.90;;;;;;5040391;28;20059;-75
2022/04/21 03:32:36;;;;;;;15.20;9.25;;;7.10;99.90;;;;;;5061595;28;20184;-75
2022/04/21 03:35:03;;;;;;;13.63;9.20;;;7.10;99.90;;;;;;5051117;28;20139;-76
2022/04/21 03:37:28;;;;;;;14.88;9.40;;;7.10;99.90;;;;;;5034383;28;20044;-75
2022/04/21 03:39:54;;;;;;;13.63;8.43;;;7.10;99.90;;;;;;5049653;28;20053;-75
2022/04/21 03:42:23;;;;;;;11.15;8.23;;;7.10;99.90;;;;;;5041331;28;20048;-76
2022/04/21 03:44:50;;;;;;;16.77;9.15;;;7.10;99.90;;;;;;5051444;28;20048;-76
2022/04/21 03:47:16;;;;;;;13.82;8.55;;;7.10;99.90;;;;;;5042299;28;20037;-76
2022/04/21 03:49:41;;;;;;;14.55;8.50;;;7.10;99.90;;;;;;5064608;28;20613;-75
2022/04/21 03:52:09;;;;;;;11.68;7.82;;;7.00;99.90;;;;;;5049210;28;20043;-76
2022/04/21 03:54:35;;;;;;;14.52;8.07;;;7.00;99.90;;;;;;5048962;28;20041;-76
2022/04/21 03:57:01;;;;;;;12.15;9.23;;;7.00;99.90;;;;;;5049653;28;20083;-75
2022/04/21 03:59:26;;;;;;;12.95;8.40;;;7.00;99.90;;;;;;5061897;28;20045;-76
2022/04/21 04:01:52;;;;;;;11.88;7.55;;;7.00;99.90;;;;;;5048571;28;20530;-75
2022/04/21 04:04:18;;;;;;;15.20;9.55;;;7.00;99.90;;;;;;5036826;28;20392;-75
2022/04/21 04:12:12;;;;;;;14.43;8.60;;;7.10;99.90;;;;;;5032553;28;20053;-77
2022/04/21 04:14:39;;;;;;;12.90;8.70;;;7.10;99.90;;;;;;5053685;28;20072;-76
2022/04/21 04:17:06;;;;;;;14.60;9.10;;;7.00;99.90;;;;;;5041415;28;20330;-76
2022/04/21 04:19:33;;;;;;;13.98;8.13;;;7.00;99.90;;;;;;5043617;28;20102;-76
2022/04/21 04:22:00;;;;;;;15.73;8.50;;;7.00;99.90;;;;;;5055844;28;20858;-76
2022/04/21 04:24:26;;;;;;;15.63;8.52;;;7.00;99.90;;;;;;5047111;28;20479;-76
2022/04/21 04:26:51;;;;;;;14.23;8.50;;;7.00;99.90;;;;;;5051527;28;20047;-78
2022/04/21 04:29:22;;;;;;;12.60;8.15;;;7.00;99.90;;;;;;5036438;28;20090;-76
2022/04/21 04:31:49;;;;;;;13.90;8.52;;;7.00;99.90;;;;;;5044396;28;20041;-76
2022/04/21 04:34:15;;;;;;;11.15;8.15;;;7.00;99.90;;;;;;5033576;28;20125;-76
2022/04/21 04:36:41;;;;;;;14.68;8.75;;;7.00;99.90;;;;;;5063597;28;20136;-76
2022/04/21 04:39:07;;;;;;;15.57;7.72;;;7.00;99.90;;;;;;5043121;28;20165;-76
2022/04/21 04:44:17;;;;;;;13.70;7.85;;;7.00;99.90;;;;;;5063824;28;20049;-76
2022/04/21 04:46:43;;;;;;;12.35;8.27;;;7.00;99.90;;;;;;5062913;28;20040;-76
2022/04/21 04:49:10;;;;;;;12.43;7.70;;;7.00;99.90;;;;;;5064967;28;20039;-76
2022/04/21 04:51:40;;;;;;;14.45;8.60;;;7.00;99.90;;;;;;5066410;28;20049;-75
2022/04/21 04:54:06;;;;;;;11.95;8.38;;;7.00;99.90;;;;;;5052361;28;20056;-76
2022/04/21 04:56:33;;;;;;;12.48;7.85;;;7.00;99.90;;;;;;5036683;28;20084;-75
2022/04/21 04:58:59;;;;;;;15.15;8.35;;;7.10;99.90;;;;;;5038853;28;20135;-76
2022/04/21 05:01:30;;;;;;;11.90;8.07;;;7.10;99.90;;;;;;5047544;28;20135;-76
2022/04/21 05:04:06;;;;;;;15.38;7.78;;;7.10;99.90;;;;;;5039464;28;20115;-75
2022/04/21 05:06:43;;;;;;;12.50;7.78;;;7.10;99.90;;;;;;5063319;28;20109;-76
2022/04/21 05:09:14;;;;;;;15.10;8.38;;;7.20;99.90;;;;;;5045515;28;20131;-76
2022/04/21 05:11:41;;;;;;;14.10;7.72;;;7.20;99.90;;;;;;5045223;28;20037;-76
2022/04/21 05:14:08;;;;;;;10.30;7.38;;;7.20;99.90;;;;;;5057367;28;20160;-75
2022/04/21 05:16:36;;;;;;;12.57;8.63;;;7.30;99.90;;;;;;5072914;28;20432;-76
2022/04/21 05:19:03;;;;;;;17.67;8.88;;;7.30;99.90;;;;;;5055762;28;20047;-76
2022/04/21 05:21:30;;;;;;;13.50;8.27;;;7.30;99.90;;;;;;5058834;28;20131;-77
2022/04/21 05:23:59;;;;;;;11.75;7.90;;;7.30;99.90;;;;;;5047813;28;20083;-77
2022/04/21 05:26:26;;;;;;;12.18;8.38;;;7.30;99.90;;;;;;5041642;28;20122;-76
2022/04/21 05:28:53;;;;;;;13.10;8.13;;;7.40;99.90;;;;;;5037777;28;20435;-76
2022/04/21 05:31:18;;;;;;;15.48;9.35;;;7.40;99.90;;;;;;5041538;28;20045;-77
2022/04/21 05:33:44;;;;;;;11.27;7.63;;;7.50;99.90;;;;;;5041186;28;20028;-77
2022/04/21 05:36:10;;;;;;;13.43;8.10;;;7.50;99.90;;;;;;5042568;28;20094;-77
2022/04/21 05:38:37;;;;;;;11.02;8.18;;;7.60;99.90;;;;;;5043423;28;20044;-77
2022/04/21 05:41:04;;;;;;;12.95;8.35;;;7.60;99.90;;;;;;5041104;28;20094;-76
2022/04/21 05:43:39;;;;;;;12.13;8.27;;;7.70;99.90;;;;;;5036537;28;20112;-77
2022/04/21 05:46:06;;;;;;;14.15;8.07;;;7.80;99.90;;;;;;5060901;28;20049;-77
2022/04/21 05:48:32;;;;;;;11.60;8.23;;;7.80;99.90;;;;;;5060194;28;20640;-76
2022/04/21 05:50:58;;;;;;;12.23;8.00;;;7.90;99.90;;;;;;5035875;28;20136;-76
2022/04/21 05:53:26;;;;;;;13.55;8.30;;;8.00;99.90;;;;;;5050077;28;20054;-77
2022/04/21 05:55:53;;;;;;;12.73;7.80;;;8.00;99.90;;;;;;5041965;28;20097;-76
2022/04/21 05:58:20;;;;;;;13.40;8.00;;;8.10;99.90;;;;;;5088087;28;20094;-76
2022/04/21 06:00:46;;;;;;;13.45;7.38;;;8.10;99.90;;;;;;5071577;28;20150;-76
2022/04/21 06:03:12;;;;;;;11.50;7.90;;;8.20;99.90;;;;;;5060993;28;20048;-77
2022/04/21 06:05:39;;;;;;;13.57;7.97;;;8.30;99.90;;;;;;5052072;28;20044;-77
2022/04/21 06:08:06;;;;;;;14.65;8.80;;;8.30;99.90;;;;;;5053308;28;20048;-76
2022/04/21 06:10:33;;;;;;;14.68;7.20;;;8.40;99.90;;;;;;5037913;28;20052;-76
2022/04/21 06:13:01;;;;;;;11.63;7.75;;;8.50;99.90;;;;;;5055872;28;20495;-77
2022/04/21 06:15:27;;;;;;;11.45;7.65;;;8.60;99.90;;;;;;5055974;28;20093;-76
2022/04/21 06:17:53;;;;;;;10.35;7.05;;;8.70;99.90;;;;;;5055174;28;20103;-76
2022/04/21 06:20:19;;;;;;;12.45;7.97;;;8.80;99.90;;;;;;5035263;28;20530;-77
2022/04/21 06:22:44;;;;;;;12.32;7.05;;;8.80;99.90;;;;;;5063987;28;20036;-78
2022/04/21 06:25:10;;;;;;;15.68;8.00;;;8.90;99.90;;;;;;5055011;28;20049;-78
2022/04/21 06:27:35;;;;;;;10.13;7.25;;;9.00;99.90;;;;;;5058577;28;20033;-75
2022/04/21 06:30:01;;;;;;;11.95;7.55;;;9.00;99.90;;;;;;5036727;28;20094;-75
2022/04/21 06:32:27;;;;;;;12.07;6.93;;;9.10;99.90;;;;;;5051607;28;20033;-74
2022/04/21 06:34:54;;;;;;;9.68;6.90;;;9.20;99.90;;;;;;5041688;28;20044;-74
2022/04/21 06:37:19;;;;;;;10.60;6.60;;;9.20;99.90;;;;;;5064572;28;20055;-74
2022/04/21 06:39:45;;;;;;;11.93;7.32;;;9.40;99.90;;;;;;5050045;28;20512;-74
2022/04/21 06:42:10;;;;;;;13.35;7.00;;;9.40;99.90;;;;;;5052627;28;20071;-74
2022/04/21 06:50:05;;;;;;;11.88;6.95;;;9.60;99.90;;;;;;5035265;28;20120;-76
2022/04/21 06:52:32;;;;;;;9.88;6.30;;;9.70;99.90;;;;;;5044234;28;20491;-76
2022/04/21 06:54:58;;;;;;;12.77;6.10;;;9.80;99.90;;;;;;5070284;28;20120;-75
2022/04/21 06:57:24;;;;;;;10.35;5.50;;;9.90;99.90;;;;;;5040081;28;20143;-76
2022/04/21 06:59:50;;;;;;;9.57;6.28;;;10.00;99.90;;;;;;5066094;28;20063;-75
2022/04/21 07:02:16;;;;;;;9.98;5.53;;;10.10;99.90;;;;;;5058966;28;20423;-75
2022/04/21 07:04:42;;;;;;;13.70;5.57;;;10.20;99.90;;;;;;5058617;28;20504;-76
2022/04/21 07:07:08;;;;;;;10.07;6.00;;;10.30;99.90;;;;;;5046741;28;20045;-75
2022/04/21 07:09:34;;;;;;;15.20;6.28;;;10.40;99.90;;;;;;5040047;28;20112;-75
2022/04/21 07:11:59;;;;;;;12.77;5.68;;;10.50;99.90;;;;;;5043207;28;20053;-75
2022/04/21 07:14:26;;;;;;;7.57;4.65;;;10.60;99.90;;;;;;5056028;28;20182;-76
2022/04/21 07:16:51;;;;;;;8.73;4.65;;;10.70;99.90;;;;;;5044965;28;20727;-75
2022/04/21 07:19:17;;;;;;;9.88;4.60;;;10.70;99.90;;;;;;5039494;28;20128;-76
2022/04/21 07:21:43;;;;;;;7.80;4.07;;;10.80;99.90;;;;;;5053971;28;20044;-73
2022/04/21 07:24:08;;;;;;;8.68;4.78;;;11.00;99.90;;;;;;5034757;28;20341;-74
2022/04/21 07:26:34;;;;;;;7.18;4.45;;;11.00;99.90;;;;;;5034470;28;20053;-74
2022/04/21 07:28:59;;;;;;;19.90;5.68;;;11.20;99.90;;;;;;5030263;28;20056;-75
2022/04/21 07:31:25;;;;;;;10.65;6.30;;;11.20;99.90;;;;;;5053355;28;20446;-76
2022/04/21 07:33:51;;;;;;;13.50;7.28;;;11.30;99.90;;;;;;5054627;28;20037;-76
2022/04/21 07:36:16;;;;;;;12.10;6.63;;;11.50;99.90;;;;;;5054426;28;20082;-76
2022/04/21 07:38:42;;;;;;;10.25;5.82;;;11.50;99.90;;;;;;5030118;28;20048;-79
2022/04/21 07:41:07;;;;;;;8.27;4.63;;;11.50;99.90;;;;;;5056870;28;20037;-79
2022/04/21 07:43:33;;;;;;;8.18;5.28;;;11.60;99.90;;;;;;5037276;28;20118;-79
2022/04/21 07:45:59;;;;;;;10.02;5.90;;;11.70;99.90;;;;;;5052434;28;20075;-80
2022/04/21 07:49:44;;;;;;;13.65;6.43;;;11.80;99.90;;;;;;5052312;28;20348;-80
2022/04/21 07:51:10;;;;;;;6.80;4.63;;;11.80;99.90;;;;;;5054956;28;20080;-77
2022/04/21 07:53:36;;;;;;;13.50;4.88;;;11.90;99.90;;;;;;5054293;28;20129;-76
2022/04/21 07:56:01;;;;;;;7.00;4.15;;;12.00;99.90;;;;;;5037521;28;20671;-77
2022/04/21 07:58:27;;;;;;;7.25;3.35;;;12.10;99.90;;;;;;5037127;28;20467;-76
2022/04/21 08:00:53;;;;;;;5.93;3.40;;;12.20;99.90;;;;;;5037309;28;20049;-76
2022/04/21 08:03:19;;;;;;;6.57;2.75;;;12.30;99.90;;;;;;5037617;28;20570;-75
2022/04/21 08:05:45;;;;;;;4.47;2.30;;;12.40;99.90;;;;;;5022508;28;20064;-77
2022/04/21 08:08:11;;;;;;;4.03;2.30;;;12.50;99.70;;;;;;5030276;28;20037;-77
2022/04/21 08:10:37;;;;;;;5.13;2.42;;;12.50;99.10;;;;;;5029468;28;20045;-77
2022/04/21 08:13:02;;;;;;;6.10;2.50;;;12.60;98.70;;;;;;5031584;28;20051;-77
2022/04/21 08:15:30;;;;;;;7.40;2.60;;;12.70;98.60;;;;;;5031961;28;20107;-76
2022/04/21 08:17:58;;;;;;;5.68;2.40;;;12.80;98.60;;;;;;5031761;28;20049;-76
2022/04/21 08:20:25;;;;;;;6.25;2.47;;;12.80;98.20;;;;;;5046337;28;20134;-77
2022/04/21 08:22:51;;;;;;;3.00;2.17;;;12.90;98.10;;;;;;5033959;28;20136;-76
2022/04/21 08:33:32;;;;;;;6.05;2.67;;;13.00;96.30;;;;;;5040833;28;20060;-78
2022/04/21 08:35:58;;;;;;;5.53;2.63;;;13.20;96.10;;;;;;5014518;28;20044;-77
2022/04/21 08:38:28;;;;;;;4.20;2.35;;;13.20;95.60;;;;;;5043181;28;20447;-77
2022/04/21 08:40:59;;;;;;;4.73;2.60;;;13.30;95.40;;;;;;5046421;28;20049;-77
2022/04/21 08:43:29;;;;;;;5.00;2.58;;;13.30;95.20;;;;;;5022489;28;20299;-76
2022/04/21 08:45:55;;;;;;;3.53;2.23;;;13.40;95.10;;;;;;5016970;28;20064;-78
2022/04/21 08:48:23;;;;;;;3.92;2.95;;;13.40;95.00;;;;;;5018034;28;20037;-82
2022/04/21 08:50:49;;;;;;;3.88;2.90;;;13.60;95.00;;;;;;5041706;28;20041;-77
2022/04/21 08:53:19;;;;;;;3.95;2.70;;;13.50;94.90;;;;;;5051347;28;20051;-78
2022/04/21 08:55:46;;;;;;;4.53;2.80;;;13.60;94.70;;;;;;5022632;28;20400;-77
2022/04/21 08:58:11;;;;;;;8.65;3.10;;;13.70;94.20;;;;;;5030291;28;20042;-77
2022/04/21 09:00:38;;;;;;;3.63;2.70;;;13.80;93.60;;;;;;5017860;28;20114;-77
2022/04/21 09:03:05;;;;;;;5.10;2.92;;;13.80;93.20;;;;;;5036271;28;20060;-76
2022/04/21 09:05:31;;;;;;;5.00;2.90;;;13.90;93.10;;;;;;5048189;28;20057;-77
2022/04/21 09:07:58;;;;;;;8.48;3.20;;;13.90;93.20;;;;;;5029796;28;20041;-75
2022/04/21 09:10:25;;;;;;;5.03;2.83;;;14.00;93.40;;;;;;5028736;28;20047;-76
2022/04/21 09:12:55;;;;;;;6.82;3.33;;;14.10;93.00;;;;;;5031894;28;20045;-77
2022/04/21 09:15:23;;;;;;;4.78;3.40;;;14.40;92.50;;;;;;5029091;28;20056;-76
2022/04/21 09:17:53;;;;;;;4.45;2.85;;;14.20;92.30;;;;;;5028213;28;20045;-77
2022/04/21 09:20:23;;;;;;;6.38;3.45;;;14.20;92.00;;;;;;5028429;28;20037;-77
2022/04/21 09:22:54;;;;;;;6.53;3.40;;;14.30;92.00;;;;;;5026978;28;20069;-76
2022/04/21 09:25:25;;;;;;;5.82;2.90;;;14.30;91.60;;;;;;5029933;28;20053;-77
2022/04/21 09:27:52;;;;;;;8.65;3.08;;;14.40;91.70;;;;;;5036969;28;20037;-75
2022/04/21 09:30:17;;;;;;;5.20;2.72;;;14.50;91.60;;;;;;5047143;28;20051;-77
2022/04/21 09:32:53;;;;;;;3.75;2.60;;;14.50;91.10;;;;;;5047759;28;20136;-76
2022/04/21 09:35:21;;;;;;;4.53;2.67;;;14.60;90.80;;;;;;5043726;28;20103;-76
2022/04/21 09:37:48;;;;;;;4.43;2.70;;;14.60;90.50;;;;;;5027193;28;20042;-76
2022/04/21 09:40:19;;;;;;;5.15;3.15;;;14.70;90.10;;;;;;5029829;28;20041;-76
2022/04/21 09:42:59;;;;;;;4.67;2.70;;;14.70;90.30;;;;;;5045919;28;20119;-76
2022/04/21 09:48:22;;;;;;;4.22;2.67;;;14.80;90.50;;;;;;5027766;28;20052;-76
2022/04/21 09:50:52;;;;;;;10.38;2.97;;;14.80;90.40;;;;;;5028402;28;20515;-76
2022/04/21 09:53:23;;;;;;;5.78;2.50;;;14.90;90.50;;;;;;5028613;28;20437;-74
2022/04/21 09:56:06;;;;;;;8.30;3.13;;;15.10;90.00;;;;;;5027470;28;20041;-75
2022/04/21 09:58:36;;;;;;;5.18;2.92;;;15.10;89.20;;;;;;5033792;28;20488;-91
2022/04/21 10:01:03;;;;;;;5.43;2.57;;;15.10;88.50;;;;;;5036168;28;111096;-75
2022/04/21 10:03:33;;;;;;;5.57;2.75;;;15.10;88.40;;;;;;5051477;28;20435;-74
2022/04/21 10:05:59;;;;;;;4.22;2.50;;;15.20;88.40;;;;;;5053414;28;20532;-75
2022/04/21 10:08:25;;;;;;;5.32;2.90;;;15.30;87.80;;;;;;5033235;28;20041;-75
2022/04/21 10:10:52;;;;;;;5.55;2.92;;;15.40;86.80;;;;;;5030585;28;20520;-75
2022/04/21 10:13:18;;;;;;;5.57;3.00;;;15.40;86.50;;;;;;5044277;28;20123;-75
2022/04/21 10:15:44;;;;;;;10.75;2.72;;;15.40;85.30;;;;;;5066118;28;20403;-75
2022/04/21 10:18:13;;;;;;;6.40;2.65;;;15.50;85.20;;;;;;5086091;28;20040;-75
2022/04/21 10:20:40;;;;;;;4.35;2.58;;;15.50;85.10;;;;;;5075937;28;20048;-74
2022/04/21 10:23:10;;;;;;;4.95;2.80;;;15.50;84.60;;;;;;5060456;28;20043;-75
2022/04/21 10:25:40;;;;;;;7.20;2.40;;;15.70;85.70;;;;;;5030646;28;20087;-88
2022/04/21 10:28:34;;;;;;;3.55;2.05;;;15.80;84.90;;;;;;5050361;28;20058;-75
2022/04/21 10:31:29;;;;;;;5.07;2.22;;;15.90;84.20;;;;;;5054122;28;20145;-75
2022/04/21 10:34:00;;;;;;;5.07;2.25;;;16.00;83.80;;;;;;5033562;28;20170;-75
2022/04/21 10:37:12;;;;;;;6.75;2.97;;;16.10;83.20;;;;;;5030384;28;20041;-75
2022/04/21 10:39:58;;;;;;;8.30;2.53;;;16.20;82.30;;;;;;5045981;28;20053;-76
2022/04/21 10:42:27;;;;;;;7.05;2.30;;;16.30;82.90;;;;;;5046360;28;20045;-76
2022/04/21 10:44:56;;;;;;;7.90;2.63;;;16.40;82.60;;;;;;5055438;28;20079;-75
2022/04/21 10:47:35;;;;;;;4.50;2.72;;;16.50;81.70;;;;;;5039674;28;20044;-75
2022/04/21 10:50:20;;;;;;;6.25;2.28;;;16.60;80.40;;;;;;5037864;28;20154;-75
2022/04/21 10:58:36;;;;;;;3.70;2.30;;;16.90;79.50;;;;;;5031225;28;20037;-76
2022/04/21 11:01:13;;;;;;;5.63;2.15;;;17.10;79.30;;;;;;5032082;28;20071;-75
2022/04/21 11:03:41;;;;;;;4.60;2.35;;;17.20;79.50;;;;;;5051284;28;20478;-76
2022/04/21 11:06:16;;;;;;;4.15;2.40;;;17.40;78.50;;;;;;5034411;28;20400;-76
2022/04/21 11:08:42;;;;;;;8.27;2.63;;;17.60;77.60;;;;;;5030535;28;20095;-75
2022/04/21 11:11:09;;;;;;;4.32;2.13;;;17.70;76.50;;;;;;5050172;28;20029;-75
2022/04/21 11:14:01;;;;;;;4.55;2.20;;;17.90;76.10;;;;;;5051327;28;20068;-75
2022/04/21 11:16:47;;;;;;;3.70;2.03;;;17.80;75.30;;;;;;5024606;28;20118;-75
2022/04/21 11:19:44;;;;;;;6.85;2.50;;;18.00;74.90;;;;;;5056098;28;20071;-75
2022/04/21 11:22:12;;;;;;;3.90;2.10;;;18.10;73.20;;;;;;5037492;28;20455;-76
2022/04/21 11:24:56;;;;;;;5.07;2.60;;;18.20;72.70;;;;;;5071049;28;20040;-77
2022/04/21 11:27:22;;;;;;;3.85;2.20;;;18.20;72.40;;;;;;5048792;28;20144;-76
2022/04/21 11:29:48;;;;;;;5.25;2.67;;;18.40;72.00;;;;;;5039928;28;20041;-76
2022/04/21 11:32:19;;;;;;;5.72;2.45;;;18.50;71.20;;;;;;5056977;28;20048;-76
2022/04/21 11:35:01;;;;;;;7.10;2.40;;;18.60;70.80;;;;;;5053049;28;20037;-77
2022/04/21 11:37:53;;;;;;;5.28;2.63;;;18.70;68.00;;;;;;5051216;28;20441;-75
2022/04/21 11:40:32;;;;;;;5.28;2.70;;;18.70;68.20;;;;;;5048994;28;20376;-75
2022/04/21 11:43:04;;;;;;;3.53;2.15;;;18.70;68.20;;;;;;5032360;28;20040;-74
2022/04/21 11:45:36;;;;;;;4.43;2.10;;;18.70;68.30;;;;;;5052242;28;20486;-75
2022/04/21 11:48:12;;;;;;;8.07;2.30;;;18.90;69.00;;;;;;5040180;28;20508;-77
2022/04/21 11:50:43;;;;;;;5.57;2.15;;;19.00;69.50;;;;;;5052731;28;20513;-75
2022/04/21 11:53:15;;;;;;;;;;;19.10;68.90;;;;;;5052077;28;20041;-75
2022/04/21 11:55:41;;;;;;;5.88;2.30;;;19.30;68.80;;;;;;5042912;28;19943;-73
2022/04/21 11:58:07;;;;;;;5.70;2.80;;;19.40;68.10;;;;;;5052599;28;20459;-74
2022/04/21 12:08:48;;;;;;;2.95;1.98;;;19.70;66.60;;;;;;5052850;28;20488;-76
2022/04/21 12:11:18;;;;;;;3.63;2.40;;;19.80;65.50;;;;;;5052840;28;20044;-75
2022/04/21 12:13:44;;;;;;;3.92;2.80;;;20.00;65.60;;;;;;5068827;28;20132;-75
2022/04/21 12:16:35;;;;;;;5.65;3.00;;;20.20;65.10;;;;;;5071820;28;20123;-76
2022/04/21 12:19:11;;;;;;;7.03;2.25;;;20.40;64.40;;;;;;5052863;28;20630;-75
2022/04/21 12:21:37;;;;;;;4.68;2.35;;;20.50;63.90;;;;;;5053018;28;20449;-76
2022/04/21 12:24:14;;;;;;;4.05;2.20;;;20.60;62.90;;;;;;5033232;28;20494;-75
2022/04/21 12:26:50;;;;;;;5.70;2.88;;;20.70;62.60;;;;;;5049486;28;20105;-75
2022/04/21 12:29:16;;;;;;;7.75;2.80;;;20.70;62.00;;;;;;5051721;28;20060;-76
2022/04/21 12:31:53;;;;;;;7.40;2.97;;;20.80;61.80;;;;;;5032524;28;20522;-75
2022/04/21 12:34:22;;;;;;;11.48;3.05;;;21.00;60.70;;;;;;5033857;28;20479;-75
2022/04/21 12:37:14;;;;;;;14.50;4.05;;;21.00;61.50;;;;;;5033033;28;20111;-74
2022/04/21 12:39:40;;;;;;;4.72;3.40;;;21.00;60.30;;;;;;5045995;28;20440;-73
2022/04/21 12:42:06;;;;;;;3.97;2.28;;;21.00;60.10;;;;;;5050762;28;20045;-74
2022/04/21 12:44:32;;;;;;;5.50;3.38;;;21.00;60.20;;;;;;5051755;28;20052;-75
2022/04/21 12:47:15;;;;;;;4.28;2.47;;;21.20;60.30;;;;;;5069637;28;20065;-74
2022/04/21 12:50:12;;;;;;;3.30;2.20;;;21.20;58.80;;;;;;5053117;28;20504;-75
2022/04/21 12:52:49;;;;;;;9.15;2.80;;;21.20;59.10;;;;;;5058059;28;20079;-74
2022/04/21 12:55:23;;;;;;;6.50;3.78;;;21.30;59.60;;;;;;5063482;28;20123;-75
2022/04/21 12:58:03;;;;;;;7.72;3.40;;;21.40;59.60;;;;;;5049697;28;20500;-74
2022/04/21 13:00:30;;;;;;;5.68;2.85;;;21.40;59.30;;;;;;5034574;28;20520;-74
2022/04/21 13:02:55;;;;;;;6.68;3.35;;;21.30;59.20;;;;;;5032326;28;20084;-75
2022/04/21 13:05:21;;;;;;;5.75;2.90;;;21.40;59.00;;;;;;5050126;28;20053;-75
2022/04/21 13:07:46;;;;;;;6.70;2.78;;;21.40;59.10;;;;;;5050190;28;20041;-75
2022/04/21 13:10:12;;;;;;;7.75;3.28;;;21.40;58.40;;;;;;5068981;28;20095;-76
2022/04/21 13:12:38;;;;;;;5.60;3.15;;;21.40;58.60;;;;;;5071336;28;20446;-75
2022/04/21 13:15:04;;;;;;;7.22;3.00;;;21.40;58.70;;;;;;5077615;28;20071;-73
2022/04/21 13:17:30;;;;;;;7.07;2.90;;;21.40;58.20;;;;;;5032233;28;20052;-74
2022/04/21 13:19:56;;;;;;;6.97;3.40;;;21.40;59.00;;;;;;5051340;28;20458;-74
2022/04/21 13:22:24;;;;;;;8.65;3.28;;;21.50;57.60;;;;;;5069187;28;20480;-73
2022/04/21 13:24:50;;;;;;;7.50;2.80;;;21.30;57.70;;;;;;5040131;28;20063;-73
2022/04/21 13:27:16;;;;;;;6.95;3.47;;;21.30;57.50;;;;;;5066723;28;20051;-74
2022/04/21 13:29:43;;;;;;;5.18;3.58;;;21.30;59.00;;;;;;5050421;28;20056;-73
2022/04/21 13:34:53;;;;;;;4.75;3.38;;;21.50;57.70;;;;;;5064272;28;20087;-74
2022/04/21 13:37:19;;;;;;;6.50;3.22;;;21.50;57.40;;;;;;5067689;28;20064;-73
2022/04/21 13:39:44;;;;;;;8.63;3.65;;;21.50;57.40;;;;;;5033417;28;20147;-74
2022/04/21 13:42:10;;;;;;;7.18;3.47;;;21.40;57.70;;;;;;5050547;28;20060;-73
2022/04/21 13:44:36;;;;;;;7.45;4.25;;;21.50;57.60;;;;;;5064104;28;20035;-73
2022/04/21 13:47:03;;;;;;;4.68;3.33;;;21.50;57.50;;;;;;5057434;28;20044;-74